sensor_id;sensor_type;location;lat;lon;timestamp;temperature;humidity
16995;DHT22;8614;48.522;9.206;2024-03-17T00:01:36;7.60;99.90
16995;DHT22;8614;48.522;9.206;2024-03-17T00:04:03;7.60;99.90
16995;DHT22;8614;48.522;9.206;2024-03-17T00:06:30;7.50;99.90
16995;DHT22;8614;48.522;9.206;2024-03-17T00:08:57;7.50;99.90
16995;DHT22;8614;48.522;9.206;2024-03-17T00:11:23;7.40;99.90
16995;DHT22;8614;48.522;9.206;2024-03-17T00:13:50;7.40;99.90
16995;DHT22;8614;48.522;9.206;2024-03-17T00:16:16;7.40;99.90
16995;DHT22;8614;48.522;9.206;2024-03-17T00:18:44;7.40;99.90
16995;DHT22;8614;48.522;9.206;2024-03-17T00:21:10;7.30;99.90
16995;DHT22;8614;48.522;9.206;2024-03-17T00:23:38;7.40;99.90
16995;DHT22;8614;48.522;9.206;2024-03-17T00:26:04;7.30;99.90
16995;DHT22;8614;48.522;9.206;2024-03-17T00:28:31;7.30;99.90
16995;DHT22;8614;48.522;9.206;2024-03-17T00:30:56;7.30;99.90
16995;DHT22;8614;48.522;9.206;2024-03-17T00:33:23;7.30;99.90
16995;DHT22;8614;48.522;9.206;2024-03-17T00:35:49;7.30;99.90
16995;DHT22;8614;48.522;9.206;2024-03-17T00:38:16;7.30;99.90
16995;DHT22;8614;48.522;9.206;2024-03-17T00:40:44;7.20;99.90
16995;DHT22;8614;48.522;9.206;2024-03-17T00:43:12;7.20;99.90
16995;DHT22;8614;48.522;9.206;2024-03-17T00:45:38;7.20;99.90
16995;DHT22;8614;48.522;9.206;2024-03-17T00:48:06;7.20;99.90
16995;DHT22;8614;48.522;9.206;2024-03-17T00:50:31;7.20;99.90
16995;DHT22;8614;48.522;9.206;2024-03-17T00:52:58;7.20;99.90
16995;DHT22;8614;48.522;9.206;2024-03-17T00:55:25;7.10;99.90
16995;DHT22;8614;48.522;9.206;2024-03-17T00:57:53;7.10;99.90
16995;DHT22;8614;48.522;9.206;2024-03-17T01:00:20;7.00;99.90
16995;DHT22;8614;48.522;9.206;2024-03-17T01:02:47;7.00;99.90
16995;DHT22;8614;48.522;9.206;2024-03-17T01:05:12;7.00;99.90
16995;DHT22;8614;48.522;9.206;2024-03-17T01:07:39;7.00;99.90
16995;DHT22;8614;48.522;9.206;2024-03-17T01:10:07;7.00;99.90
16995;DHT22;8614;48.522;9.206;2024-03-17T01:12:34;7.00;99.90
16995;DHT22;8614;48.522;9.206;2024-03-17T01:15:04;7.10;99.90
16995;DHT22;8614;48.522;9.206;2024-03-17T01:17:31;7.20;99.90
16995;DHT22;8614;48.522;9.206;2024-03-17T01:19:57;7.20;99.90
16995;DHT22;8614;48.522;9.206;2024-03-17T01:22:24;7.30;99.90
16995;DHT22;8614;48.522;9.206;2024-03-17T01:24:50;7.40;99.90
16995;DHT22;8614;48.522;9.206;2024-03-17T01:27:17;7.50;99.90
16995;DHT22;8614;48.522;9.206;2024-03-17T01:29:43;7.50;99.90
16995;DHT22;8614;48.522;9.206;2024-03-17T01:32:11;7.50;99.90
16995;DHT22;8614;48.522;9.206;2024-03-17T01:34:37;7.50;99.90
16995;DHT22;8614;48.522;9.206;2024-03-17T01:37:04;7.60;99.90
16995;DHT22;8614;48.522;9.206;2024-03-17T01:39:30;7.60;99.90
16995;DHT22;8614;48.522;9.206;2024-03-17T01:41:58;7.50;99.90
16995;DHT22;8614;48.522;9.206;2024-03-17T01:44:27;7.50;99.90
16995;DHT22;8614;48.522;9.206;2024-03-17T01:46:53;7.40;99.90
16995;DHT22;8614;48.522;9.206;2024-03-17T01:49:22;7.40;99.90
16995;DHT22;8614;48.522;9.206;2024-03-17T01:51:48;7.40;99.90
16995;DHT22;8614;48.522;9.206;2024-03-17T01:54:15;7.30;99.90
16995;DHT22;8614;48.522;9.206;2024-03-17T01:56:42;7.40;99.90
16995;DHT22;8614;48.522;9.206;2024-03-17T01:59:10;7.40;99.90
16995;DHT22;8614;48.522;9.206;2024-03-17T02:01:36;7.50;99.90
16995;DHT22;8614;48.522;9.206;2024-03-17T02:04:04;7.50;99.90
16995;DHT22;8614;48.522;9.206;2024-03-17T02:06:32;7.40;99.90
16995;DHT22;8614;48.522;9.206;2024-03-17T02:08:58;7.40;99.90
16995;DHT22;8614;48.522;9.206;2024-03-17T02:11:26;7.40;99.90
16995;DHT22;8614;48.522;9.206;2024-03-17T02:13:54;7.40;99.90
16995;DHT22;8614;48.522;9.206;2024-03-17T02:16:20;7.50;99.90
16995;DHT22;8614;48.522;9.206;2024-03-17T02:18:47;7.50;99.90
16995;DHT22;8614;48.522;9.206;2024-03-17T02:21:14;7.50;99.90
16995;DHT22;8614;48.522;9.206;2024-03-17T02:23:43;7.40;99.90
16995;DHT22;8614;48.522;9.206;2024-03-17T02:26:09;7.40;99.90
16995;DHT22;8614;48.522;9.206;2024-03-17T02:28:40;7.50;99.90
16995;DHT22;8614;48.522;9.206;2024-03-17T02:31:07;7.50;99.90
16995;DHT22;8614;48.522;9.206;2024-03-17T02:33:35;7.50;99.90
16995;DHT22;8614;48.522;9.206;2024-03-17T02:36:01;7.60;99.90
16995;DHT22;8614;48.522;9.206;2024-03-17T02:38:29;7.50;99.90
16995;DHT22;8614;48.522;9.206;2024-03-17T02:41:16;7.60;99.90
16995;DHT22;8614;48.522;9.206;2024-03-17T02:43:42;7.60;99.90
16995;DHT22;8614;48.522;9.206;2024-03-17T02:46:11;7.60;99.90
16995;DHT22;8614;48.522;9.206;2024-03-17T02:48:39;7.60;99.90
16995;DHT22;8614;48.522;9.206;2024-03-17T02:51:10;7.60;99.90
16995;DHT22;8614;48.522;9.206;2024-03-17T02:53:38;7.60;99.90
16995;DHT22;8614;48.522;9.206;2024-03-17T02:56:06;7.70;99.90
16995;DHT22;8614;48.522;9.206;2024-03-17T02:58:35;7.70;99.90
16995;DHT22;8614;48.522;9.206;2024-03-17T03:01:02;7.70;99.90
16995;DHT22;8614;48.522;9.206;2024-03-17T03:03:30;7.70;99.90
16995;DHT22;8614;48.522;9.206;2024-03-17T03:05:57;7.70;99.90
16995;DHT22;8614;48.522;9.206;2024-03-17T03:08:24;7.70;99.90
16995;DHT22;8614;48.522;9.206;2024-03-17T03:10:51;7.70;99.90
16995;DHT22;8614;48.522;9.206;2024-03-17T03:13:18;7.70;99.90
16995;DHT22;8614;48.522;9.206;2024-03-17T03:15:48;7.70;99.90
16995;DHT22;8614;48.522;9.206;2024-03-17T03:18:15;7.70;99.90
16995;DHT22;8614;48.522;9.206;2024-03-17T03:20:41;7.70;99.90
16995;DHT22;8614;48.522;9.206;2024-03-17T03:23:09;7.70;99.90
16995;DHT22;8614;48.522;9.206;2024-03-17T03:25:35;7.60;99.90
16995;DHT22;8614;48.522;9.206;2024-03-17T03:28:02;7.60;99.90
16995;DHT22;8614;48.522;9.206;2024-03-17T03:30:29;7.50;99.90
16995;DHT22;8614;48.522;9.206;2024-03-17T03:32:58;7.50;99.90
16995;DHT22;8614;48.522;9.206;2024-03-17T03:35:28;7.50;99.90
16995;DHT22;8614;48.522;9.206;2024-03-17T03:37:55;7.50;99.90
16995;DHT22;8614;48.522;9.206;2024-03-17T03:40:21;7.50;99.90
16995;DHT22;8614;48.522;9.206;2024-03-17T03:42:48;7.60;99.90
16995;DHT22;8614;48.522;9.206;2024-03-17T03:45:15;7.50;99.90
16995;DHT22;8614;48.522;9.206;2024-03-17T03:47:42;7.50;99.90
16995;DHT22;8614;48.522;9.206;2024-03-17T03:50:11;7.50;99.90
16995;DHT22;8614;48.522;9.206;2024-03-17T03:52:39;7.50;99.90
16995;DHT22;8614;48.522;9.206;2024-03-17T03:55:08;7.60;99.90
16995;DHT22;8614;48.522;9.206;2024-03-17T03:57:36;7.60;99.90
16995;DHT22;8614;48.522;9.206;2024-03-17T04:00:03;7.60;99.90
16995;DHT22;8614;48.522;9.206;2024-03-17T04:02:37;7.60;99.90
16995;DHT22;8614;48.522;9.206;2024-03-17T04:05:05;7.60;99.90
16995;DHT22;8614;48.522;9.206;2024-03-17T04:07:34;7.60;99.90
16995;DHT22;8614;48.522;9.206;2024-03-17T04:10:00;7.60;99.90
16995;DHT22;8614;48.522;9.206;2024-03-17T04:12:27;7.60;99.90
16995;DHT22;8614;48.522;9.206;2024-03-17T04:14:56;7.60;99.90
16995;DHT22;8614;48.522;9.206;2024-03-17T04:17:23;7.60;99.90
16995;DHT22;8614;48.522;9.206;2024-03-17T04:19:50;7.60;99.90
16995;DHT22;8614;48.522;9.206;2024-03-17T04:22:17;7.60;99.90
16995;DHT22;8614;48.522;9.206;2024-03-17T04:24:47;7.60;99.90
16995;DHT22;8614;48.522;9.206;2024-03-17T04:27:14;7.60;99.90
16995;DHT22;8614;48.522;9.206;2024-03-17T04:29:41;7.50;99.90
16995;DHT22;8614;48.522;9.206;2024-03-17T04:32:07;7.50;99.90
16995;DHT22;8614;48.522;9.206;2024-03-17T04:34:36;7.40;99.90
16995;DHT22;8614;48.522;9.206;2024-03-17T04:37:03;7.40;99.90
16995;DHT22;8614;48.522;9.206;2024-03-17T04:39:30;7.40;99.90
16995;DHT22;8614;48.522;9.206;2024-03-17T04:41:59;7.40;99.90
16995;DHT22;8614;48.522;9.206;2024-03-17T04:44:26;7.40;99.90
16995;DHT22;8614;48.522;9.206;2024-03-17T04:46:54;7.40;99.90
16995;DHT22;8614;48.522;9.206;2024-03-17T04:49:21;7.40;99.90
16995;DHT22;8614;48.522;9.206;2024-03-17T04:51:48;7.40;99.90
16995;DHT22;8614;48.522;9.206;2024-03-17T04:54:15;7.40;99.90
16995;DHT22;8614;48.522;9.206;2024-03-17T04:56:41;7.50;99.90
16995;DHT22;8614;48.522;9.206;2024-03-17T04:59:09;7.40;99.90
16995;DHT22;8614;48.522;9.206;2024-03-17T05:01:35;7.50;99.90
16995;DHT22;8614;48.522;9.206;2024-03-17T05:04:02;7.50;99.90
16995;DHT22;8614;48.522;9.206;2024-03-17T05:06:29;7.50;99.90
16995;DHT22;8614;48.522;9.206;2024-03-17T05:08:56;7.50;99.90
16995;DHT22;8614;48.522;9.206;2024-03-17T05:11:23;7.40;99.90
16995;DHT22;8614;48.522;9.206;2024-03-17T05:13:50;7.50;99.90
16995;DHT22;8614;48.522;9.206;2024-03-17T05:16:18;7.50;99.90
16995;DHT22;8614;48.522;9.206;2024-03-17T05:18:48;7.60;99.90
16995;DHT22;8614;48.522;9.206;2024-03-17T05:21:15;7.70;99.90
16995;DHT22;8614;48.522;9.206;2024-03-17T05:23:42;7.70;99.90
16995;DHT22;8614;48.522;9.206;2024-03-17T05:26:09;7.70;99.90
16995;DHT22;8614;48.522;9.206;2024-03-17T05:28:36;7.70;99.90
16995;DHT22;8614;48.522;9.206;2024-03-17T05:31:03;7.70;99.90
16995;DHT22;8614;48.522;9.206;2024-03-17T05:33:31;7.70;99.90
16995;DHT22;8614;48.522;9.206;2024-03-17T05:35:59;7.70;99.90
16995;DHT22;8614;48.522;9.206;2024-03-17T05:38:29;7.70;99.90
16995;DHT22;8614;48.522;9.206;2024-03-17T05:40:57;7.70;99.90
16995;DHT22;8614;48.522;9.206;2024-03-17T05:43:26;7.70;99.90
16995;DHT22;8614;48.522;9.206;2024-03-17T05:45:53;7.70;99.90
16995;DHT22;8614;48.522;9.206;2024-03-17T05:48:21;7.70;99.90
16995;DHT22;8614;48.522;9.206;2024-03-17T05:50:49;7.70;99.90
16995;DHT22;8614;48.522;9.206;2024-03-17T05:53:16;7.70;99.90
16995;DHT22;8614;48.522;9.206;2024-03-17T05:55:44;7.80;99.90
16995;DHT22;8614;48.522;9.206;2024-03-17T05:58:11;7.70;99.90
16995;DHT22;8614;48.522;9.206;2024-03-17T06:00:39;7.80;99.90
16995;DHT22;8614;48.522;9.206;2024-03-17T06:03:06;7.80;99.90
16995;DHT22;8614;48.522;9.206;2024-03-17T06:05:34;7.80;99.90
16995;DHT22;8614;48.522;9.206;2024-03-17T06:08:03;7.90;99.90
16995;DHT22;8614;48.522;9.206;2024-03-17T06:10:31;7.90;99.90
16995;DHT22;8614;48.522;9.206;2024-03-17T06:12:59;7.90;99.90
16995;DHT22;8614;48.522;9.206;2024-03-17T06:15:26;7.90;99.90
16995;DHT22;8614;48.522;9.206;2024-03-17T06:17:53;8.00;99.90
16995;DHT22;8614;48.522;9.206;2024-03-17T06:20:24;7.90;99.90
16995;DHT22;8614;48.522;9.206;2024-03-17T06:22:52;7.90;99.90
16995;DHT22;8614;48.522;9.206;2024-03-17T06:25:20;7.90;99.90
16995;DHT22;8614;48.522;9.206;2024-03-17T06:27:49;7.90;99.90
16995;DHT22;8614;48.522;9.206;2024-03-17T06:30:16;7.90;99.90
16995;DHT22;8614;48.522;9.206;2024-03-17T06:32:44;7.90;99.90
16995;DHT22;8614;48.522;9.206;2024-03-17T06:35:12;7.90;99.90
16995;DHT22;8614;48.522;9.206;2024-03-17T06:37:40;7.90;99.90
16995;DHT22;8614;48.522;9.206;2024-03-17T06:40:09;8.00;99.90
16995;DHT22;8614;48.522;9.206;2024-03-17T06:42:39;8.10;99.90
16995;DHT22;8614;48.522;9.206;2024-03-17T06:45:06;8.10;99.90
16995;DHT22;8614;48.522;9.206;2024-03-17T06:47:34;8.20;99.90
16995;DHT22;8614;48.522;9.206;2024-03-17T06:50:01;8.30;99.90
16995;DHT22;8614;48.522;9.206;2024-03-17T06:52:28;8.30;99.90
16995;DHT22;8614;48.522;9.206;2024-03-17T06:54:55;8.30;99.90
16995;DHT22;8614;48.522;9.206;2024-03-17T06:57:23;8.30;99.90
16995;DHT22;8614;48.522;9.206;2024-03-17T06:59:51;8.40;99.90
16995;DHT22;8614;48.522;9.206;2024-03-17T07:02:18;8.50;99.90
16995;DHT22;8614;48.522;9.206;2024-03-17T07:04:45;8.60;99.90
16995;DHT22;8614;48.522;9.206;2024-03-17T07:07:12;8.60;99.90
16995;DHT22;8614;48.522;9.206;2024-03-17T07:09:39;8.70;99.90
16995;DHT22;8614;48.522;9.206;2024-03-17T07:12:06;8.70;99.90
16995;DHT22;8614;48.522;9.206;2024-03-17T07:14:33;8.70;99.90
16995;DHT22;8614;48.522;9.206;2024-03-17T07:17:02;8.80;99.90
16995;DHT22;8614;48.522;9.206;2024-03-17T07:19:29;8.90;99.90
16995;DHT22;8614;48.522;9.206;2024-03-17T07:21:58;9.00;99.90
16995;DHT22;8614;48.522;9.206;2024-03-17T07:24:24;9.00;99.90
16995;DHT22;8614;48.522;9.206;2024-03-17T07:26:53;9.10;99.90
16995;DHT22;8614;48.522;9.206;2024-03-17T07:29:20;9.20;99.90
16995;DHT22;8614;48.522;9.206;2024-03-17T07:31:46;9.30;99.90
16995;DHT22;8614;48.522;9.206;2024-03-17T07:34:14;9.40;99.90
16995;DHT22;8614;48.522;9.206;2024-03-17T07:36:41;9.40;99.90
16995;DHT22;8614;48.522;9.206;2024-03-17T07:39:09;9.50;99.90
16995;DHT22;8614;48.522;9.206;2024-03-17T07:41:37;9.50;99.90
16995;DHT22;8614;48.522;9.206;2024-03-17T07:44:04;9.60;99.90
16995;DHT22;8614;48.522;9.206;2024-03-17T07:46:31;9.70;99.90
16995;DHT22;8614;48.522;9.206;2024-03-17T07:48:58;9.80;99.90
16995;DHT22;8614;48.522;9.206;2024-03-17T07:51:26;9.90;99.90
16995;DHT22;8614;48.522;9.206;2024-03-17T07:53:53;10.20;99.90
16995;DHT22;8614;48.522;9.206;2024-03-17T07:56:20;10.30;99.90
16995;DHT22;8614;48.522;9.206;2024-03-17T07:58:47;10.50;99.90
16995;DHT22;8614;48.522;9.206;2024-03-17T08:01:16;10.70;99.90
16995;DHT22;8614;48.522;9.206;2024-03-17T08:03:45;10.80;99.90
16995;DHT22;8614;48.522;9.206;2024-03-17T08:06:12;10.80;99.90
16995;DHT22;8614;48.522;9.206;2024-03-17T08:08:40;11.10;99.90
16995;DHT22;8614;48.522;9.206;2024-03-17T08:11:07;11.10;99.90
16995;DHT22;8614;48.522;9.206;2024-03-17T08:13:34;11.20;99.90
16995;DHT22;8614;48.522;9.206;2024-03-17T08:16:02;11.30;99.90
16995;DHT22;8614;48.522;9.206;2024-03-17T08:18:31;11.40;99.90
16995;DHT22;8614;48.522;9.206;2024-03-17T08:20:59;11.50;99.90
16995;DHT22;8614;48.522;9.206;2024-03-17T08:23:26;11.70;99.90
16995;DHT22;8614;48.522;9.206;2024-03-17T08:25:56;11.80;99.90
16995;DHT22;8614;48.522;9.206;2024-03-17T08:28:23;11.80;99.90
16995;DHT22;8614;48.522;9.206;2024-03-17T08:30:51;11.90;99.90
16995;DHT22;8614;48.522;9.206;2024-03-17T08:33:19;12.00;99.90
16995;DHT22;8614;48.522;9.206;2024-03-17T08:35:52;12.10;99.90
16995;DHT22;8614;48.522;9.206;2024-03-17T08:38:20;12.20;99.90
16995;DHT22;8614;48.522;9.206;2024-03-17T08:40:48;12.30;99.90
16995;DHT22;8614;48.522;9.206;2024-03-17T08:43:16;12.60;99.90
16995;DHT22;8614;48.522;9.206;2024-03-17T08:45:43;12.70;99.90
16995;DHT22;8614;48.522;9.206;2024-03-17T08:48:10;12.70;99.90
16995;DHT22;8614;48.522;9.206;2024-03-17T08:50:37;12.70;99.90
16995;DHT22;8614;48.522;9.206;2024-03-17T08:53:04;12.80;99.90
16995;DHT22;8614;48.522;9.206;2024-03-17T08:55:32;12.90;99.90
16995;DHT22;8614;48.522;9.206;2024-03-17T08:57:59;12.90;99.90
16995;DHT22;8614;48.522;9.206;2024-03-17T09:00:27;13.10;99.90
16995;DHT22;8614;48.522;9.206;2024-03-17T09:02:55;13.30;99.90
16995;DHT22;8614;48.522;9.206;2024-03-17T09:05:22;13.50;99.90
16995;DHT22;8614;48.522;9.206;2024-03-17T09:07:49;13.50;99.90
16995;DHT22;8614;48.522;9.206;2024-03-17T09:10:16;13.50;99.90
16995;DHT22;8614;48.522;9.206;2024-03-17T09:12:43;13.50;99.90
16995;DHT22;8614;48.522;9.206;2024-03-17T09:15:09;13.70;99.90
16995;DHT22;8614;48.522;9.206;2024-03-17T09:17:38;13.70;99.90
16995;DHT22;8614;48.522;9.206;2024-03-17T09:20:06;13.80;99.90
16995;DHT22;8614;48.522;9.206;2024-03-17T09:22:37;13.80;99.90
16995;DHT22;8614;48.522;9.206;2024-03-17T09:25:05;14.00;99.90
16995;DHT22;8614;48.522;9.206;2024-03-17T09:27:33;14.20;99.90
16995;DHT22;8614;48.522;9.206;2024-03-17T09:30:02;14.20;99.90
16995;DHT22;8614;48.522;9.206;2024-03-17T09:32:31;14.30;99.90
16995;DHT22;8614;48.522;9.206;2024-03-17T09:34:59;14.40;99.90
16995;DHT22;8614;48.522;9.206;2024-03-17T09:37:26;14.50;99.90
16995;DHT22;8614;48.522;9.206;2024-03-17T09:39:53;14.50;99.90
16995;DHT22;8614;48.522;9.206;2024-03-17T09:42:23;14.30;99.90
16995;DHT22;8614;48.522;9.206;2024-03-17T09:44:50;14.40;99.90
16995;DHT22;8614;48.522;9.206;2024-03-17T09:47:20;14.40;99.90
16995;DHT22;8614;48.522;9.206;2024-03-17T09:49:47;14.50;99.90
16995;DHT22;8614;48.522;9.206;2024-03-17T09:52:20;14.60;99.90
16995;DHT22;8614;48.522;9.206;2024-03-17T09:54:51;14.70;99.90
16995;DHT22;8614;48.522;9.206;2024-03-17T09:57:22;14.70;99.90
16995;DHT22;8614;48.522;9.206;2024-03-17T09:59:52;14.60;99.90
16995;DHT22;8614;48.522;9.206;2024-03-17T10:02:20;14.40;99.90
16995;DHT22;8614;48.522;9.206;2024-03-17T10:04:48;14.50;99.90
16995;DHT22;8614;48.522;9.206;2024-03-17T10:07:14;14.40;99.90
16995;DHT22;8614;48.522;9.206;2024-03-17T10:09:43;14.40;99.90
16995;DHT22;8614;48.522;9.206;2024-03-17T10:12:27;14.50;99.90
16995;DHT22;8614;48.522;9.206;2024-03-17T10:15:00;14.60;99.90
16995;DHT22;8614;48.522;9.206;2024-03-17T10:17:31;14.80;99.90
16995;DHT22;8614;48.522;9.206;2024-03-17T10:20:15;14.90;99.90
16995;DHT22;8614;48.522;9.206;2024-03-17T10:22:59;14.90;99.90
16995;DHT22;8614;48.522;9.206;2024-03-17T10:25:29;15.10;99.90
16995;DHT22;8614;48.522;9.206;2024-03-17T10:27:56;15.50;99.90
16995;DHT22;8614;48.522;9.206;2024-03-17T10:30:24;15.60;99.90
16995;DHT22;8614;48.522;9.206;2024-03-17T10:32:52;15.80;99.90
16995;DHT22;8614;48.522;9.206;2024-03-17T10:35:31;16.00;99.90
16995;DHT22;8614;48.522;9.206;2024-03-17T10:37:59;16.20;99.90
16995;DHT22;8614;48.522;9.206;2024-03-17T10:40:29;16.40;99.90
16995;DHT22;8614;48.522;9.206;2024-03-17T10:42:57;16.50;99.90
16995;DHT22;8614;48.522;9.206;2024-03-17T10:45:25;16.50;99.90
16995;DHT22;8614;48.522;9.206;2024-03-17T10:47:52;16.40;99.90
16995;DHT22;8614;48.522;9.206;2024-03-17T10:50:20;16.40;99.90
16995;DHT22;8614;48.522;9.206;2024-03-17T10:52:49;16.50;99.90
16995;DHT22;8614;48.522;9.206;2024-03-17T10:55:24;16.50;99.90
16995;DHT22;8614;48.522;9.206;2024-03-17T10:57:53;16.50;99.90
16995;DHT22;8614;48.522;9.206;2024-03-17T11:00:24;16.60;99.90
16995;DHT22;8614;48.522;9.206;2024-03-17T11:02:55;16.60;99.90
16995;DHT22;8614;48.522;9.206;2024-03-17T11:05:24;16.40;99.90
16995;DHT22;8614;48.522;9.206;2024-03-17T11:07:52;16.40;99.90
16995;DHT22;8614;48.522;9.206;2024-03-17T11:10:21;16.50;99.90
16995;DHT22;8614;48.522;9.206;2024-03-17T11:12:51;16.40;99.90
16995;DHT22;8614;48.522;9.206;2024-03-17T11:15:39;16.40;99.90
16995;DHT22;8614;48.522;9.206;2024-03-17T11:18:40;16.40;99.90
16995;DHT22;8614;48.522;9.206;2024-03-17T11:21:19;16.40;99.90
16995;DHT22;8614;48.522;9.206;2024-03-17T11:24:00;16.40;99.90
16995;DHT22;8614;48.522;9.206;2024-03-17T11:26:33;16.50;99.90
16995;DHT22;8614;48.522;9.206;2024-03-17T11:29:02;16.60;99.90
16995;DHT22;8614;48.522;9.206;2024-03-17T11:31:43;16.60;99.90
16995;DHT22;8614;48.522;9.206;2024-03-17T11:34:35;16.60;99.90
16995;DHT22;8614;48.522;9.206;2024-03-17T11:37:05;16.60;99.90
16995;DHT22;8614;48.522;9.206;2024-03-17T11:39:51;16.70;99.90
16995;DHT22;8614;48.522;9.206;2024-03-17T11:42:22;16.70;99.90
16995;DHT22;8614;48.522;9.206;2024-03-17T11:45:04;16.80;99.90
16995;DHT22;8614;48.522;9.206;2024-03-17T11:47:34;16.80;99.90
16995;DHT22;8614;48.522;9.206;2024-03-17T11:50:02;16.90;99.90
16995;DHT22;8614;48.522;9.206;2024-03-17T11:52:30;17.00;99.90
16995;DHT22;8614;48.522;9.206;2024-03-17T11:54:55;17.00;99.90
16995;DHT22;8614;48.522;9.206;2024-03-17T11:57:28;17.00;99.90
16995;DHT22;8614;48.522;9.206;2024-03-17T11:59:56;17.00;99.90
16995;DHT22;8614;48.522;9.206;2024-03-17T12:02:25;17.00;99.90
16995;DHT22;8614;48.522;9.206;2024-03-17T12:04:52;16.90;99.90
16995;DHT22;8614;48.522;9.206;2024-03-17T12:07:21;16.80;99.90
16995;DHT22;8614;48.522;9.206;2024-03-17T12:09:49;16.80;99.90
16995;DHT22;8614;48.522;9.206;2024-03-17T12:12:18;16.90;99.90
16995;DHT22;8614;48.522;9.206;2024-03-17T12:14:45;17.00;99.90
16995;DHT22;8614;48.522;9.206;2024-03-17T12:17:13;17.10;99.90
16995;DHT22;8614;48.522;9.206;2024-03-17T12:19:41;17.10;99.90
16995;DHT22;8614;48.522;9.206;2024-03-17T12:22:16;16.90;99.90
16995;DHT22;8614;48.522;9.206;2024-03-17T12:24:44;16.90;99.90
16995;DHT22;8614;48.522;9.206;2024-03-17T12:27:17;17.00;99.90
16995;DHT22;8614;48.522;9.206;2024-03-17T12:29:43;16.90;99.90
16995;DHT22;8614;48.522;9.206;2024-03-17T12:32:13;16.90;99.90
16995;DHT22;8614;48.522;9.206;2024-03-17T12:34:41;16.90;99.90
16995;DHT22;8614;48.522;9.206;2024-03-17T12:37:11;16.80;99.90
16995;DHT22;8614;48.522;9.206;2024-03-17T12:39:41;16.80;99.90
16995;DHT22;8614;48.522;9.206;2024-03-17T12:42:09;16.90;99.90
16995;DHT22;8614;48.522;9.206;2024-03-17T12:44:37;16.90;99.90
16995;DHT22;8614;48.522;9.206;2024-03-17T12:47:08;16.80;99.90
16995;DHT22;8614;48.522;9.206;2024-03-17T12:49:34;16.60;99.90
16995;DHT22;8614;48.522;9.206;2024-03-17T12:52:03;16.60;99.90
16995;DHT22;8614;48.522;9.206;2024-03-17T12:54:30;16.60;99.90
16995;DHT22;8614;48.522;9.206;2024-03-17T12:57:06;16.60;99.90
16995;DHT22;8614;48.522;9.206;2024-03-17T12:59:51;16.50;99.90
16995;DHT22;8614;48.522;9.206;2024-03-17T13:02:41;16.40;99.90
16995;DHT22;8614;48.522;9.206;2024-03-17T13:05:13;16.40;99.90
16995;DHT22;8614;48.522;9.206;2024-03-17T13:07:42;16.20;99.90
16995;DHT22;8614;48.522;9.206;2024-03-17T13:10:12;16.30;99.90
16995;DHT22;8614;48.522;9.206;2024-03-17T13:12:40;16.40;99.90
16995;DHT22;8614;48.522;9.206;2024-03-17T13:15:09;16.50;99.90
16995;DHT22;8614;48.522;9.206;2024-03-17T13:17:37;16.60;99.90
16995;DHT22;8614;48.522;9.206;2024-03-17T13:20:06;16.70;99.90
16995;DHT22;8614;48.522;9.206;2024-03-17T13:22:35;16.90;99.90
16995;DHT22;8614;48.522;9.206;2024-03-17T13:25:08;17.00;99.90
16995;DHT22;8614;48.522;9.206;2024-03-17T13:27:35;17.00;99.90
16995;DHT22;8614;48.522;9.206;2024-03-17T13:30:02;17.00;99.90
16995;DHT22;8614;48.522;9.206;2024-03-17T13:32:29;17.00;99.90
16995;DHT22;8614;48.522;9.206;2024-03-17T13:34:56;17.00;99.90
16995;DHT22;8614;48.522;9.206;2024-03-17T13:37:22;16.90;99.90
16995;DHT22;8614;48.522;9.206;2024-03-17T13:39:49;17.00;99.90
16995;DHT22;8614;48.522;9.206;2024-03-17T13:42:17;17.00;99.90
16995;DHT22;8614;48.522;9.206;2024-03-17T13:44:45;17.00;99.90
16995;DHT22;8614;48.522;9.206;2024-03-17T13:47:14;17.00;99.90
16995;DHT22;8614;48.522;9.206;2024-03-17T13:49:42;17.00;99.90
16995;DHT22;8614;48.522;9.206;2024-03-17T13:52:09;16.90;99.90
16995;DHT22;8614;48.522;9.206;2024-03-17T13:54:36;16.90;99.90
16995;DHT22;8614;48.522;9.206;2024-03-17T13:57:03;16.90;99.90
16995;DHT22;8614;48.522;9.206;2024-03-17T13:59:32;17.00;99.90
16995;DHT22;8614;48.522;9.206;2024-03-17T14:01:59;17.00;99.90
16995;DHT22;8614;48.522;9.206;2024-03-17T14:04:27;17.10;99.90
16995;DHT22;8614;48.522;9.206;2024-03-17T14:06:54;17.20;99.90
16995;DHT22;8614;48.522;9.206;2024-03-17T14:09:21;17.20;99.90
16995;DHT22;8614;48.522;9.206;2024-03-17T14:11:48;17.20;99.90
16995;DHT22;8614;48.522;9.206;2024-03-17T14:14:16;17.30;99.90
16995;DHT22;8614;48.522;9.206;2024-03-17T14:16:44;17.40;99.90
16995;DHT22;8614;48.522;9.206;2024-03-17T14:19:11;17.30;99.90
16995;DHT22;8614;48.522;9.206;2024-03-17T14:21:37;17.10;99.90
16995;DHT22;8614;48.522;9.206;2024-03-17T14:24:04;17.10;99.90
16995;DHT22;8614;48.522;9.206;2024-03-17T14:26:33;17.10;99.90
16995;DHT22;8614;48.522;9.206;2024-03-17T14:29:00;17.10;99.90
16995;DHT22;8614;48.522;9.206;2024-03-17T14:31:30;17.00;99.90
16995;DHT22;8614;48.522;9.206;2024-03-17T14:33:59;16.90;99.90
16995;DHT22;8614;48.522;9.206;2024-03-17T14:36:26;16.80;99.90
16995;DHT22;8614;48.522;9.206;2024-03-17T14:38:55;16.80;99.90
16995;DHT22;8614;48.522;9.206;2024-03-17T14:41:21;16.90;99.90
16995;DHT22;8614;48.522;9.206;2024-03-17T14:43:48;16.90;99.90
16995;DHT22;8614;48.522;9.206;2024-03-17T14:46:15;16.90;99.90
16995;DHT22;8614;48.522;9.206;2024-03-17T14:48:42;17.00;99.90
16995;DHT22;8614;48.522;9.206;2024-03-17T14:51:11;17.00;99.90
16995;DHT22;8614;48.522;9.206;2024-03-17T14:53:38;17.00;99.90
16995;DHT22;8614;48.522;9.206;2024-03-17T14:56:14;16.80;99.90
16995;DHT22;8614;48.522;9.206;2024-03-17T14:58:41;16.70;99.90
16995;DHT22;8614;48.522;9.206;2024-03-17T15:01:08;16.50;99.90
16995;DHT22;8614;48.522;9.206;2024-03-17T15:03:35;16.40;99.90
16995;DHT22;8614;48.522;9.206;2024-03-17T15:06:02;16.30;99.90
16995;DHT22;8614;48.522;9.206;2024-03-17T15:08:31;16.30;99.90
16995;DHT22;8614;48.522;9.206;2024-03-17T15:10:57;16.30;99.90
16995;DHT22;8614;48.522;9.206;2024-03-17T15:13:25;16.30;99.90
16995;DHT22;8614;48.522;9.206;2024-03-17T15:15:52;16.30;99.90
16995;DHT22;8614;48.522;9.206;2024-03-17T15:18:20;16.20;99.90
16995;DHT22;8614;48.522;9.206;2024-03-17T15:20:51;16.10;99.90
16995;DHT22;8614;48.522;9.206;2024-03-17T15:23:18;16.10;99.90
16995;DHT22;8614;48.522;9.206;2024-03-17T15:25:46;16.00;99.90
16995;DHT22;8614;48.522;9.206;2024-03-17T15:28:13;16.00;99.90
16995;DHT22;8614;48.522;9.206;2024-03-17T15:30:40;15.90;99.90
16995;DHT22;8614;48.522;9.206;2024-03-17T15:33:07;15.70;99.90
16995;DHT22;8614;48.522;9.206;2024-03-17T15:35:34;15.70;99.90
16995;DHT22;8614;48.522;9.206;2024-03-17T15:38:01;15.60;99.90
16995;DHT22;8614;48.522;9.206;2024-03-17T15:40:28;15.50;99.90
16995;DHT22;8614;48.522;9.206;2024-03-17T15:42:57;15.30;99.90
16995;DHT22;8614;48.522;9.206;2024-03-17T15:45:24;15.20;99.90
16995;DHT22;8614;48.522;9.206;2024-03-17T15:47:52;15.10;99.90
16995;DHT22;8614;48.522;9.206;2024-03-17T15:50:19;15.10;99.90
16995;DHT22;8614;48.522;9.206;2024-03-17T15:52:45;15.00;99.90
16995;DHT22;8614;48.522;9.206;2024-03-17T15:55:12;15.00;99.90
16995;DHT22;8614;48.522;9.206;2024-03-17T15:57:39;14.80;99.90
16995;DHT22;8614;48.522;9.206;2024-03-17T16:00:08;14.80;99.90
16995;DHT22;8614;48.522;9.206;2024-03-17T16:02:40;14.70;99.90